Time;durP1;ratioP1;P1;durP2;ratioP2;P2;SDS_P1;SDS_P2;PMS_P1;PMS_P2;Temp;Humidity;BMP_temperature;BMP_pressure;BME280_temperature;BME280_humidity;BME280_pressure;Samples;Min_cycle;Max_cycle;Signal;HPM_P1;HPM_P2
2023/09/29 00:01:33;;;;;;;2.67;2.30;;;24.10;48.10;;;;;;5106703;27;46799;-67
2023/09/29 00:04:00;;;;;;;3.53;2.70;;;24.10;48.80;;;;;;5106695;27;45282;-67
2023/09/29 00:06:27;;;;;;;2.30;1.88;;;24.10;48.10;;;;;;5106873;27;45208;-65
2023/09/29 00:08:54;;;;;;;2.63;2.40;;;24.10;48.30;;;;;;5106990;27;45410;-66
2023/09/29 00:11:21;;;;;;;2.70;2.10;;;24.10;48.30;;;;;;5106661;27;46417;-67
2023/09/29 00:13:48;;;;;;;2.42;2.00;;;24.10;48.20;;;;;;5106441;27;45329;-66
2023/09/29 00:16:16;;;;;;;3.03;2.35;;;24.10;48.40;;;;;;5106808;27;45275;-67
2023/09/29 00:18:43;;;;;;;2.50;2.30;;;24.00;48.40;;;;;;5106855;27;45266;-67
2023/09/29 00:21:11;;;;;;;3.90;2.15;;;24.00;48.40;;;;;;5106403;27;45547;-66
2023/09/29 00:23:37;;;;;;;2.78;2.00;;;24.00;48.50;;;;;;5106576;27;45291;-67
2023/09/29 00:26:05;;;;;;;3.08;2.60;;;23.90;48.40;;;;;;5106083;27;45291;-66
2023/09/29 00:28:32;;;;;;;3.45;2.33;;;24.00;48.50;;;;;;5106429;27;45354;-66
2023/09/29 00:30:59;;;;;;;2.40;1.92;;;24.00;48.50;;;;;;5106533;27;47368;-66
2023/09/29 00:33:27;;;;;;;3.03;2.17;;;23.90;48.40;;;;;;5106479;27;45325;-66
2023/09/29 00:35:54;;;;;;;3.30;2.00;;;23.90;48.40;;;;;;5106189;27;45546;-67
2023/09/29 00:38:21;;;;;;;3.05;2.22;;;23.90;48.60;;;;;;5106788;27;45266;-66
2023/09/29 00:40:48;;;;;;;2.65;2.22;;;23.90;49.10;;;;;;5106306;27;47506;-66
2023/09/29 00:43:15;;;;;;;3.00;1.98;;;23.80;48.50;;;;;;5106381;27;45377;-66
2023/09/29 00:45:42;;;;;;;2.80;2.50;;;23.90;48.60;;;;;;5106199;27;45259;-66
2023/09/29 00:48:10;;;;;;;4.13;2.42;;;23.80;48.50;;;;;;5106554;27;45162;-66
2023/09/29 00:50:38;;;;;;;2.50;1.80;;;23.80;48.50;;;;;;5106000;27;46714;-66
2023/09/29 00:53:06;;;;;;;2.70;2.30;;;23.80;48.50;;;;;;5106078;27;45355;-65
2023/09/29 00:55:35;;;;;;;2.33;1.98;;;23.80;48.50;;;;;;5106173;27;45366;-65
2023/09/29 00:58:04;;;;;;;3.30;1.95;;;23.80;48.60;;;;;;5106663;27;45353;-65
2023/09/29 01:00:32;;;;;;;3.75;2.28;;;23.70;49.20;;;;;;5105973;27;45443;-65
2023/09/29 01:02:59;;;;;;;1.92;1.75;;;23.70;48.50;;;;;;5105981;27;45286;-66
2023/09/29 01:05:26;;;;;;;2.53;1.92;;;23.70;48.50;;;;;;5106071;27;45197;-66
2023/09/29 01:07:54;;;;;;;2.45;2.13;;;23.70;48.60;;;;;;5107052;27;45149;-65
2023/09/29 01:10:24;;;;;;;2.45;1.92;;;23.70;48.70;;;;;;5109442;27;45334;-66
2023/09/29 01:12:51;;;;;;;3.85;2.47;;;23.70;48.60;;;;;;5109309;27;45242;-65
2023/09/29 01:15:19;;;;;;;2.63;2.10;;;23.60;48.60;;;;;;5108834;27;45247;-67
2023/09/29 01:17:46;;;;;;;3.22;2.25;;;23.70;48.70;;;;;;5109637;27;45630;-66
2023/09/29 01:20:25;;;;;;;2.22;1.90;;;23.60;49.30;;;;;;5109500;27;45279;-65
2023/09/29 01:22:52;;;;;;;2.42;1.98;;;23.60;48.70;;;;;;5109446;27;45184;-65
2023/09/29 01:25:20;;;;;;;2.78;2.20;;;23.60;48.70;;;;;;5109622;27;45234;-65
2023/09/29 01:27:48;;;;;;;2.42;1.77;;;23.50;48.80;;;;;;5109692;27;45294;-65
2023/09/29 01:30:16;;;;;;;2.80;2.13;;;23.50;48.70;;;;;;5108903;27;46749;-65
2023/09/29 01:32:43;;;;;;;2.38;2.00;;;23.60;48.80;;;;;;5108999;27;45185;-66
2023/09/29 01:35:11;;;;;;;2.90;1.85;;;23.50;48.70;;;;;;5108729;27;45520;-66
2023/09/29 01:37:42;;;;;;;3.13;1.88;;;23.50;48.70;;;;;;5109092;27;45464;-65
2023/09/29 01:40:11;;;;;;;1.75;1.65;;;23.50;48.70;;;;;;5108889;27;47668;-66
2023/09/29 01:42:40;;;;;;;2.15;1.85;;;23.50;48.70;;;;;;5108817;27;45291;-66
2023/09/29 01:45:15;;;;;;;2.53;2.28;;;23.50;48.80;;;;;;5109069;27;45200;-66
2023/09/29 01:47:43;;;;;;;2.55;2.03;;;23.50;48.70;;;;;;5109186;27;45331;-65
2023/09/29 01:50:10;;;;;;;2.20;2.00;;;23.50;48.70;;;;;;5108851;27;45299;-65
2023/09/29 01:52:37;;;;;;;2.90;1.85;;;23.40;48.70;;;;;;5108691;27;45239;-66
2023/09/29 01:55:06;;;;;;;2.95;2.08;;;23.40;48.80;;;;;;5108872;27;45359;-65
2023/09/29 01:57:33;;;;;;;4.47;2.20;;;23.40;48.90;;;;;;5109015;27;45278;-66
2023/09/29 02:00:05;;;;;;;2.10;1.80;;;23.40;48.80;;;;;;5108326;27;46794;-67
2023/09/29 02:02:31;;;;;;;2.58;1.95;;;23.40;48.80;;;;;;5108651;27;45281;-66
2023/09/29 02:04:58;;;;;;;2.75;1.92;;;23.40;48.90;;;;;;5108579;27;45327;-65
2023/09/29 02:07:25;;;;;;;2.15;1.70;;;23.30;48.90;;;;;;5108817;27;45334;-66
2023/09/29 02:09:52;;;;;;;2.35;1.80;;;23.30;48.80;;;;;;5107854;27;45461;-65
2023/09/29 02:12:19;;;;;;;3.97;1.80;;;23.30;48.90;;;;;;5108301;27;45294;-66
2023/09/29 02:14:45;;;;;;;2.40;2.20;;;23.30;48.90;;;;;;5108583;27;45302;-65
2023/09/29 02:17:14;;;;;;;3.88;1.73;;;23.30;48.90;;;;;;5108620;27;45194;-65
2023/09/29 02:19:40;;;;;;;2.38;2.00;;;23.30;49.00;;;;;;5107839;27;45498;-65
2023/09/29 02:22:07;;;;;;;2.72;2.00;;;23.30;49.60;;;;;;5108145;27;45432;-65
2023/09/29 02:24:34;;;;;;;2.63;2.08;;;23.30;48.90;;;;;;5108492;27;45275;-67
2023/09/29 02:27:01;;;;;;;2.63;2.05;;;23.20;48.90;;;;;;5108839;27;45188;-67
2023/09/29 02:29:28;;;;;;;2.50;2.17;;;23.20;49.00;;;;;;5108014;27;45519;-67
2023/09/29 02:31:56;;;;;;;2.28;1.77;;;23.20;49.00;;;;;;5108070;27;45290;-66
2023/09/29 02:34:25;;;;;;;2.80;1.90;;;23.20;49.00;;;;;;5108109;27;45467;-66
2023/09/29 02:36:52;;;;;;;2.60;2.22;;;23.20;49.00;;;;;;5107896;27;45403;-67
2023/09/29 02:39:19;;;;;;;2.63;2.10;;;23.20;49.00;;;;;;5107744;27;46274;-66
2023/09/29 02:41:46;;;;;;;1.85;1.70;;;23.20;49.00;;;;;;5107824;27;45206;-66
2023/09/29 02:44:12;;;;;;;4.22;2.35;;;23.10;49.00;;;;;;5108030;27;45301;-66
2023/09/29 02:46:39;;;;;;;2.13;1.92;;;23.10;49.00;;;;;;5108065;27;45531;-66
2023/09/29 02:49:07;;;;;;;2.33;2.10;;;23.10;49.10;;;;;;5107584;27;45231;-66
2023/09/29 02:51:35;;;;;;;2.75;2.30;;;23.10;49.10;;;;;;5107725;27;45210;-65
2023/09/29 02:54:03;;;;;;;3.60;2.00;;;23.00;49.10;;;;;;5107430;27;45556;-65
2023/09/29 02:56:30;;;;;;;2.58;1.95;;;23.00;49.10;;;;;;5107577;27;45331;-66
2023/09/29 02:58:57;;;;;;;2.25;2.00;;;23.00;49.10;;;;;;5107544;27;45291;-65
2023/09/29 03:01:24;;;;;;;4.00;2.08;;;23.00;49.20;;;;;;5107544;27;45238;-66
2023/09/29 03:03:54;;;;;;;2.65;2.10;;;23.00;49.20;;;;;;5107643;27;45251;-66
2023/09/29 03:06:21;;;;;;;2.20;1.98;;;23.00;49.30;;;;;;5107590;27;45482;-65
2023/09/29 03:08:54;;;;;;;2.70;2.20;;;23.00;49.30;;;;;;5107301;27;45522;-65
2023/09/29 03:11:21;;;;;;;2.10;1.90;;;22.90;49.20;;;;;;5107502;27;45348;-66
2023/09/29 03:13:47;;;;;;;3.42;1.88;;;23.00;49.30;;;;;;5107668;27;45251;-67
2023/09/29 03:16:14;;;;;;;2.70;1.80;;;23.00;49.20;;;;;;5107838;27;45181;-66
2023/09/29 03:18:42;;;;;;;2.13;1.80;;;22.90;49.30;;;;;;5107409;27;45343;-67
2023/09/29 03:21:09;;;;;;;2.38;1.80;;;22.90;49.30;;;;;;5107343;27;45456;-67
2023/09/29 03:23:36;;;;;;;4.40;2.00;;;22.90;49.30;;;;;;5107373;27;45299;-67
2023/09/29 03:26:04;;;;;;;2.38;1.52;;;22.90;49.30;;;;;;5107848;27;45390;-67
2023/09/29 03:28:31;;;;;;;2.65;1.98;;;22.90;49.40;;;;;;5107123;27;46573;-67
2023/09/29 03:31:00;;;;;;;2.28;2.08;;;22.90;49.40;;;;;;5106388;27;45306;-67
2023/09/29 03:33:27;;;;;;;2.20;1.90;;;22.90;49.40;;;;;;5107455;27;45217;-67
2023/09/29 03:35:55;;;;;;;2.80;2.10;;;22.80;49.40;;;;;;5107242;27;45203;-67
2023/09/29 03:38:24;;;;;;;2.60;2.10;;;22.80;49.40;;;;;;5107183;27;46322;-67
2023/09/29 03:40:52;;;;;;;1.92;1.75;;;22.80;49.40;;;;;;5107137;27;45275;-66
2023/09/29 03:43:21;;;;;;;3.13;2.00;;;22.70;49.40;;;;;;5106738;27;45282;-66
2023/09/29 03:45:49;;;;;;;1.98;1.70;;;22.80;49.50;;;;;;5107401;27;45303;-65
2023/09/29 03:48:16;;;;;;;3.33;2.08;;;22.80;49.60;;;;;;5106712;27;46742;-67
2023/09/29 03:50:43;;;;;;;3.28;2.10;;;22.70;49.60;;;;;;5106779;27;45284;-67
2023/09/29 03:53:10;;;;;;;2.38;2.17;;;22.70;49.50;;;;;;5106809;27;45342;-67
2023/09/29 03:55:37;;;;;;;2.10;1.90;;;22.70;49.50;;;;;;5107418;27;45259;-66
2023/09/29 03:58:04;;;;;;;2.03;1.92;;;22.70;49.60;;;;;;5106845;27;46579;-66
2023/09/29 04:00:32;;;;;;;3.47;2.17;;;22.70;49.50;;;;;;5106652;27;45285;-66
2023/09/29 04:02:59;;;;;;;2.03;1.70;;;22.70;49.60;;;;;;5106851;27;45197;-67
2023/09/29 04:05:26;;;;;;;2.58;1.80;;;22.70;49.60;;;;;;5106942;27;45407;-67
2023/09/29 04:07:53;;;;;;;3.22;2.05;;;22.70;49.60;;;;;;5103999;27;45446;-67
2023/09/29 04:10:20;;;;;;;2.72;1.90;;;22.70;49.60;;;;;;5106810;27;45382;-66
2023/09/29 04:12:47;;;;;;;2.45;2.00;;;22.60;49.60;;;;;;5106816;27;45342;-66
2023/09/29 04:15:14;;;;;;;2.30;1.90;;;22.60;49.60;;;;;;5106761;27;45474;-67
2023/09/29 04:17:43;;;;;;;2.85;2.13;;;22.60;49.60;;;;;;5106537;27;45515;-66
2023/09/29 04:20:10;;;;;;;2.75;2.08;;;22.60;49.60;;;;;;5106484;27;45330;-66
2023/09/29 04:22:37;;;;;;;2.78;1.80;;;22.60;49.60;;;;;;5106770;27;45308;-66
2023/09/29 04:25:07;;;;;;;2.05;1.73;;;22.60;49.60;;;;;;5106811;27;45135;-65
2023/09/29 04:27:35;;;;;;;3.47;1.80;;;22.60;49.60;;;;;;5106211;27;46712;-66
2023/09/29 04:30:04;;;;;;;2.13;1.90;;;22.60;49.60;;;;;;5105863;27;45317;-66
2023/09/29 04:32:31;;;;;;;3.38;1.90;;;22.60;49.70;;;;;;5106724;27;45268;-66
2023/09/29 04:34:59;;;;;;;2.13;1.60;;;22.50;49.60;;;;;;5106450;27;45597;-67
2023/09/29 04:37:26;;;;;;;2.13;1.70;;;22.50;49.70;;;;;;5106229;27;45542;-67
2023/09/29 04:39:55;;;;;;;1.83;1.70;;;22.50;49.70;;;;;;5106327;27;45246;-67
2023/09/29 04:42:22;;;;;;;1.90;1.80;;;22.50;49.70;;;;;;5107878;27;45308;-65
2023/09/29 04:44:49;;;;;;;2.70;1.85;;;22.50;49.70;;;;;;5110438;27;45464;-66
2023/09/29 04:47:18;;;;;;;2.58;1.85;;;22.50;49.80;;;;;;5109752;27;46375;-66
2023/09/29 04:49:45;;;;;;;1.98;1.60;;;22.50;49.80;;;;;;5109766;27;45283;-66
2023/09/29 04:52:13;;;;;;;3.03;1.95;;;22.50;49.80;;;;;;5109868;27;45244;-67
2023/09/29 04:54:40;;;;;;;2.38;1.95;;;22.40;49.70;;;;;;5109797;27;45430;-66
2023/09/29 04:57:07;;;;;;;2.53;1.77;;;22.40;49.70;;;;;;5109318;27;46364;-66
2023/09/29 04:59:34;;;;;;;2.00;1.75;;;22.40;49.80;;;;;;5109440;27;45209;-66
2023/09/29 05:02:01;;;;;;;2.42;2.05;;;22.40;49.80;;;;;;5109606;27;45254;-66
2023/09/29 05:04:28;;;;;;;1.95;1.80;;;22.40;49.80;;;;;;5109884;27;45203;-66
2023/09/29 05:06:55;;;;;;;2.35;1.70;;;22.40;49.80;;;;;;5109470;27;46375;-66
2023/09/29 05:09:24;;;;;;;2.67;1.88;;;22.40;49.80;;;;;;5109376;27;45321;-66
2023/09/29 05:11:51;;;;;;;2.03;1.85;;;22.40;49.90;;;;;;5109507;27;45259;-66
2023/09/29 05:14:18;;;;;;;1.70;1.60;;;22.40;49.80;;;;;;5109313;27;45509;-66
2023/09/29 05:16:45;;;;;;;2.63;2.03;;;22.40;49.80;;;;;;5108564;27;45513;-66
2023/09/29 05:19:12;;;;;;;2.22;1.90;;;22.30;49.80;;;;;;5109307;27;45445;-67
2023/09/29 05:21:39;;;;;;;2.15;1.88;;;22.30;49.80;;;;;;5109358;27;45240;-66
2023/09/29 05:24:06;;;;;;;2.47;1.92;;;22.30;49.90;;;;;;5109430;27;45453;-66
2023/09/29 05:26:35;;;;;;;2.03;1.83;;;22.30;49.90;;;;;;5108826;27;47019;-66
2023/09/29 05:29:01;;;;;;;2.00;1.73;;;22.30;49.90;;;;;;5109197;27;45313;-66
2023/09/29 05:31:28;;;;;;;2.17;1.67;;;22.30;49.90;;;;;;5109260;27;45197;-66
2023/09/29 05:33:55;;;;;;;2.03;1.67;;;22.30;49.90;;;;;;5109361;27;45518;-67
2023/09/29 05:36:22;;;;;;;1.95;1.70;;;22.20;49.80;;;;;;5108650;27;45723;-66
2023/09/29 05:38:50;;;;;;;2.13;1.90;;;22.20;49.80;;;;;;5108966;27;45271;-67
2023/09/29 05:41:16;;;;;;;2.08;1.88;;;22.20;49.90;;;;;;5109291;27;45252;-66
2023/09/29 05:43:45;;;;;;;2.80;1.70;;;22.20;49.80;;;;;;5109276;27;45203;-66
2023/09/29 05:46:12;;;;;;;2.30;1.95;;;22.20;49.90;;;;;;5108847;27;46822;-66
2023/09/29 05:48:38;;;;;;;3.35;1.95;;;22.20;49.90;;;;;;5108862;27;45287;-66
2023/09/29 05:51:05;;;;;;;2.13;1.75;;;22.20;49.80;;;;;;5108960;27;45260;-66
2023/09/29 05:53:32;;;;;;;2.00;1.80;;;22.20;49.90;;;;;;5108291;27;45372;-66
2023/09/29 05:56:06;;;;;;;4.45;1.98;;;22.20;49.80;;;;;;5108454;27;45272;-67
2023/09/29 05:58:33;;;;;;;1.55;1.40;;;22.20;49.90;;;;;;5108453;27;45290;-66
2023/09/29 06:01:09;;;;;;;3.13;1.70;;;22.20;49.90;;;;;;5108382;27;45228;-66
2023/09/29 06:03:36;;;;;;;3.33;1.90;;;22.20;49.90;;;;;;5108550;27;45210;-66
2023/09/29 06:06:03;;;;;;;1.92;1.73;;;22.20;49.90;;;;;;5114338;27;45448;-65
2023/09/29 06:08:33;;;;;;;1.80;1.70;;;22.20;49.90;;;;;;5110334;27;44734;-67
2023/09/29 06:11:00;;;;;;;2.63;1.80;;;22.20;49.90;;;;;;5109854;27;45324;-65
2023/09/29 06:13:27;;;;;;;1.65;1.40;;;22.20;49.90;;;;;;5110942;27;45017;-65
2023/09/29 06:15:54;;;;;;;2.05;1.58;;;22.10;49.90;;;;;;5109255;27;45506;-66
2023/09/29 06:18:22;;;;;;;3.00;2.10;;;22.10;49.90;;;;;;5108371;27;45322;-66
2023/09/29 06:20:49;;;;;;;2.00;1.80;;;22.10;49.90;;;;;;5108380;27;45280;-65
2023/09/29 06:23:15;;;;;;;2.30;1.60;;;22.10;49.90;;;;;;5108524;27;45395;-66
2023/09/29 06:25:42;;;;;;;2.83;1.83;;;22.10;49.90;;;;;;5107975;27;45593;-65
2023/09/29 06:28:09;;;;;;;2.00;1.80;;;22.10;49.90;;;;;;5108048;27;45322;-66
2023/09/29 06:30:38;;;;;;;2.20;1.60;;;22.10;49.90;;;;;;5108160;27;45298;-66
2023/09/29 06:33:06;;;;;;;1.95;1.75;;;22.10;49.80;;;;;;5108289;27;45517;-66
2023/09/29 06:35:34;;;;;;;1.58;1.48;;;22.20;49.80;;;;;;5107416;27;48479;-66
2023/09/29 06:38:01;;;;;;;2.05;1.77;;;22.20;50.40;;;;;;5107983;27;45237;-66
2023/09/29 06:40:28;;;;;;;1.73;1.63;;;22.20;49.70;;;;;;5105341;27;45435;-66
2023/09/29 06:42:54;;;;;;;1.70;1.60;;;22.20;49.70;;;;;;5108047;27;45276;-66
2023/09/29 06:45:21;;;;;;;1.95;1.75;;;22.20;49.50;;;;;;5107768;27;46303;-65
2023/09/29 06:47:48;;;;;;;1.80;1.50;;;22.20;49.60;;;;;;5107407;27;45142;-65
2023/09/29 06:50:15;;;;;;;2.15;1.42;;;22.20;49.50;;;;;;5107418;27;45324;-66
2023/09/29 06:52:44;;;;;;;1.75;1.60;;;22.20;49.60;;;;;;5106716;27;45369;-66
2023/09/29 06:55:12;;;;;;;2.20;1.70;;;22.20;49.60;;;;;;5107356;27;46380;-64
2023/09/29 06:57:39;;;;;;;1.77;1.60;;;22.20;49.60;;;;;;5107407;27;45319;-67
2023/09/29 07:00:08;;;;;;;1.85;1.50;;;22.20;49.60;;;;;;5107713;27;45287;-66
2023/09/29 07:02:35;;;;;;;1.60;1.48;;;22.20;49.60;;;;;;5107541;27;45551;-65
2023/09/29 07:05:02;;;;;;;1.77;1.67;;;22.20;49.50;;;;;;5106973;27;46645;-65
2023/09/29 07:07:29;;;;;;;2.55;1.88;;;22.30;49.60;;;;;;5107027;27;45321;-65
2023/09/29 07:09:57;;;;;;;2.17;1.80;;;22.30;49.50;;;;;;5107639;27;45291;-66
2023/09/29 07:12:24;;;;;;;1.80;1.70;;;22.30;49.50;;;;;;5107798;27;45449;-66
2023/09/29 07:14:52;;;;;;;2.45;1.55;;;22.30;49.50;;;;;;5107433;27;46392;-65
2023/09/29 07:17:19;;;;;;;1.42;1.30;;;22.30;50.00;;;;;;5107374;27;45222;-65
2023/09/29 07:19:46;;;;;;;1.92;1.58;;;22.30;49.50;;;;;;5107511;27;45240;-65
2023/09/29 07:22:13;;;;;;;2.38;1.67;;;22.40;49.40;;;;;;5107783;27;45432;-65
2023/09/29 07:24:41;;;;;;;2.75;2.00;;;22.40;49.30;;;;;;5107320;27;45481;-64
2023/09/29 07:27:09;;;;;;;3.08;1.63;;;22.40;49.30;;;;;;5107620;27;45310;-65
2023/09/29 07:29:36;;;;;;;2.47;1.35;;;22.40;49.20;;;;;;5107609;27;45375;-69
2023/09/29 07:32:03;;;;;;;2.70;1.88;;;22.40;49.20;;;;;;5107495;27;45358;-65
2023/09/29 07:34:31;;;;;;;1.77;1.65;;;22.50;49.20;;;;;;5106800;27;46959;-65
2023/09/29 07:36:59;;;;;;;2.40;1.55;;;22.50;49.20;;;;;;5106933;27;45270;-66
2023/09/29 07:39:26;;;;;;;1.67;1.42;;;22.50;49.20;;;;;;5107304;27;45287;-65
2023/09/29 07:41:53;;;;;;;1.88;1.52;;;22.50;49.30;;;;;;5107487;27;45293;-65
2023/09/29 07:44:22;;;;;;;2.33;1.50;;;22.50;49.20;;;;;;5107007;27;46428;-65
2023/09/29 07:46:52;;;;;;;3.53;1.40;;;22.50;49.30;;;;;;5107207;27;45323;-65
2023/09/29 07:49:20;;;;;;;1.55;1.45;;;22.50;49.20;;;;;;5107481;27;45248;-65
2023/09/29 07:51:47;;;;;;;2.33;1.58;;;22.60;49.40;;;;;;5107531;27;45173;-64
2023/09/29 07:54:15;;;;;;;1.70;1.60;;;22.60;49.30;;;;;;5107140;27;46744;-64
2023/09/29 07:56:47;;;;;;;2.55;1.80;;;22.60;49.20;;;;;;5106903;27;45265;-65
2023/09/29 07:59:14;;;;;;;1.60;1.45;;;22.70;49.20;;;;;;5108540;27;45479;-64
2023/09/29 08:01:43;;;;;;;2.72;2.03;;;22.70;49.20;;;;;;5110117;27;45349;-65
2023/09/29 08:04:11;;;;;;;1.85;1.63;;;22.70;49.10;;;;;;5108949;27;45264;-65
2023/09/29 08:06:38;;;;;;;1.40;1.30;;;22.70;49.00;;;;;;5106994;27;45195;-65
2023/09/29 08:09:06;;;;;;;2.25;1.48;;;22.80;49.10;;;;;;5106377;27;45308;-65
2023/09/29 08:11:33;;;;;;;2.13;1.50;;;22.80;49.00;;;;;;5106674;27;45530;-65
2023/09/29 08:14:00;;;;;;;2.25;1.65;;;22.80;48.90;;;;;;5106507;27;47219;-64
2023/09/29 08:16:26;;;;;;;1.83;1.67;;;22.80;49.00;;;;;;5106533;27;45315;-66
2023/09/29 08:18:55;;;;;;;2.42;1.60;;;22.90;49.50;;;;;;5110126;27;45322;-66
2023/09/29 08:21:22;;;;;;;1.95;1.75;;;22.90;48.90;;;;;;5110087;27;45338;-64
2023/09/29 08:23:48;;;;;;;1.60;1.50;;;22.90;48.80;;;;;;5109597;27;45298;-65
2023/09/29 08:26:16;;;;;;;2.72;1.92;;;22.90;48.80;;;;;;5109825;27;45386;-64
2023/09/29 08:28:43;;;;;;;2.20;1.58;;;23.00;48.80;;;;;;5109811;27;45292;-64
2023/09/29 08:31:15;;;;;;;1.90;1.60;;;23.00;48.70;;;;;;5110034;27;45607;-64
2023/09/29 08:33:42;;;;;;;2.95;1.90;;;23.00;48.60;;;;;;5109592;27;46557;-65
2023/09/29 08:36:10;;;;;;;1.48;1.38;;;23.10;48.60;;;;;;5109509;27;45214;-65
2023/09/29 08:38:37;;;;;;;1.88;1.60;;;23.10;48.60;;;;;;5109490;27;45235;-64
2023/09/29 08:41:04;;;;;;;1.88;1.70;;;23.10;48.50;;;;;;5109789;27;45287;-64
2023/09/29 08:43:31;;;;;;;3.53;1.50;;;23.20;48.60;;;;;;5109374;27;46499;-64
2023/09/29 08:45:59;;;;;;;2.10;1.60;;;23.20;48.50;;;;;;5109397;27;45298;-64
2023/09/29 08:48:26;;;;;;;1.63;1.52;;;23.20;48.50;;;;;;5109583;27;45240;-65
2023/09/29 08:50:55;;;;;;;2.00;1.80;;;23.20;48.50;;;;;;5097529;27;45395;-64
2023/09/29 08:53:25;;;;;;;2.63;1.60;;;23.30;48.40;;;;;;5088746;27;46389;-66
2023/09/29 08:55:52;;;;;;;2.97;1.60;;;23.30;48.30;;;;;;5094332;27;45457;-67
2023/09/29 08:58:19;;;;;;;2.53;1.70;;;23.30;49.00;;;;;;5109081;27;45245;-65
2023/09/29 09:00:50;;;;;;;2.40;1.70;;;23.30;48.50;;;;;;5109501;27;45561;-67
2023/09/29 09:03:17;;;;;;;1.83;1.33;;;23.40;48.60;;;;;;5101286;27;46476;-67
2023/09/29 09:05:44;;;;;;;2.15;1.95;;;23.40;49.00;;;;;;5092367;27;45194;-68
2023/09/29 09:08:12;;;;;;;3.20;1.77;;;23.50;49.50;;;;;;5092652;27;45489;-65
2023/09/29 09:10:40;;;;;;;2.42;1.70;;;23.50;49.80;;;;;;5109261;27;45188;-65
2023/09/29 09:13:08;;;;;;;3.55;2.03;;;23.50;49.40;;;;;;5090375;27;45437;-66
2023/09/29 09:15:35;;;;;;;9.20;3.08;;;23.60;49.80;;;;;;5088466;28;45212;-68
2023/09/29 09:18:02;;;;;;;4.72;2.00;;;23.60;51.50;;;;;;5100052;27;45419;-68
2023/09/29 09:20:31;;;;;;;6.03;1.90;;;23.70;51.90;;;;;;5108163;27;45311;-68
2023/09/29 09:22:59;;;;;;;6.55;1.85;;;23.80;51.50;;;;;;5118843;27;45461;-68
2023/09/29 09:25:35;;;;;;;3.38;2.13;;;23.90;51.90;;;;;;5107798;27;45227;-66
2023/09/29 09:28:03;;;;;;;2.53;2.05;;;24.00;52.00;;;;;;5108889;27;45244;-64
2023/09/29 09:30:35;;;;;;;6.15;1.80;;;24.00;51.80;;;;;;5109038;27;45317;-68
2023/09/29 09:33:04;;;;;;;3.25;1.65;;;24.10;52.00;;;;;;5109482;27;45161;-67
2023/09/29 09:35:31;;;;;;;4.68;1.90;;;24.20;52.00;;;;;;5108921;27;45329;-69
2023/09/29 09:37:59;;;;;;;3.80;1.83;;;24.30;51.70;;;;;;5106130;27;45377;-68
2023/09/29 09:40:26;;;;;;;7.50;1.92;;;24.40;52.50;;;;;;5088902;28;45403;-66
2023/09/29 09:42:53;;;;;;;8.32;1.83;;;24.50;52.20;;;;;;5088401;27;45463;-67
2023/09/29 09:45:25;;;;;;;2.15;1.90;;;24.50;52.00;;;;;;5109177;27;45463;-66
2023/09/29 09:47:57;;;;;;;4.03;1.92;;;24.70;51.60;;;;;;5109700;27;45275;-66
2023/09/29 09:50:24;;;;;;;3.70;2.13;;;24.80;51.40;;;;;;5109053;27;45372;-65
2023/09/29 09:52:59;;;;;;;4.90;2.38;;;24.80;51.70;;;;;;5108109;27;46381;-65
2023/09/29 09:55:28;;;;;;;4.18;1.85;;;24.90;51.10;;;;;;5107125;27;45183;-66
2023/09/29 09:57:56;;;;;;;5.05;2.20;;;25.00;50.60;;;;;;5108939;27;45363;-66
2023/09/29 10:00:30;;;;;;;2.95;1.95;;;25.00;50.60;;;;;;5106029;27;45566;-68
2023/09/29 10:02:57;;;;;;;4.38;1.95;;;25.10;50.80;;;;;;5109171;27;45662;-72
2023/09/29 10:05:31;;;;;;;3.08;1.67;;;25.10;50.60;;;;;;5108724;27;45414;-69
2023/09/29 10:08:03;;;;;;;3.78;1.77;;;25.20;50.70;;;;;;5109405;27;45307;-69
2023/09/29 10:10:34;;;;;;;3.90;1.88;;;25.30;50.90;;;;;;5095059;27;45491;-65
2023/09/29 10:13:01;;;;;;;5.47;1.77;;;25.40;50.30;;;;;;5091078;27;47301;-66
2023/09/29 10:15:30;;;;;;;2.55;2.22;;;25.50;50.30;;;;;;5087829;27;45276;-67
2023/09/29 10:17:58;;;;;;;5.32;1.90;;;25.60;50.10;;;;;;5090604;27;45388;-66
2023/09/29 10:20:26;;;;;;;4.97;2.10;;;25.60;50.00;;;;;;5093676;27;45529;-66
2023/09/29 10:23:06;;;;;;;6.15;3.05;;;25.70;50.00;;;;;;5096510;27;45451;-67
2023/09/29 10:25:33;;;;;;;2.33;2.08;;;25.80;49.80;;;;;;5110934;27;45261;-66
2023/09/29 10:28:00;;;;;;;2.25;2.05;;;25.90;49.70;;;;;;5102443;27;45202;-65
2023/09/29 10:30:29;;;;;;;3.05;1.90;;;25.90;49.60;;;;;;5104454;27;45416;-68
2023/09/29 10:33:05;;;;;;;4.72;2.22;;;26.00;49.70;;;;;;5099159;27;46655;-69
2023/09/29 10:35:33;;;;;;;7.03;2.50;;;26.10;51.10;;;;;;5107510;27;45253;-70
2023/09/29 10:38:09;;;;;;;4.20;1.83;;;26.30;50.60;;;;;;5108945;27;45201;-67
2023/09/29 10:40:36;;;;;;;14.52;2.97;;;26.40;50.80;;;;;;5107785;27;45566;-68
2023/09/29 10:43:03;;;;;;;26.17;3.83;;;26.50;49.90;;;;;;5108090;27;45302;-67
2023/09/29 10:45:36;;;;;;;47.80;5.57;;;26.70;49.60;;;;;;5108386;27;45211;-68
2023/09/29 10:48:05;;;;;;;62.88;6.05;;;26.80;49.70;;;;;;5108330;27;45208;-67
2023/09/29 10:50:43;;;;;;;71.15;7.38;;;26.90;49.10;;;;;;5089196;27;45740;-69
2023/09/29 10:53:10;;;;;;;54.83;5.75;;;27.00;48.70;;;;;;5102473;27;45468;-67
2023/09/29 10:55:43;;;;;;;43.08;5.75;;;27.10;48.80;;;;;;5107913;27;45259;-66
2023/09/29 10:58:11;;;;;;;31.08;4.13;;;27.30;48.60;;;;;;5109590;27;45460;-69
2023/09/29 11:00:43;;;;;;;32.03;5.75;;;27.40;48.60;;;;;;5108385;27;45306;-68
2023/09/29 11:03:13;;;;;;;46.85;6.40;;;27.50;47.80;;;;;;5093070;27;46576;-70
2023/09/29 11:05:53;;;;;;;29.52;4.78;;;27.60;48.20;;;;;;5092151;27;45485;-69
2023/09/29 11:08:20;;;;;;;51.88;5.03;;;27.70;47.70;;;;;;5103990;27;45470;-70
2023/09/29 11:10:57;;;;;;;53.75;6.18;;;27.90;48.00;;;;;;5087582;27;45169;-71
2023/09/29 11:13:24;;;;;;;44.35;5.07;;;28.00;48.60;;;;;;5096610;27;45467;-68
2023/09/29 11:15:53;;;;;;;18.95;3.95;;;28.10;48.10;;;;;;5107786;27;45336;-70
2023/09/29 11:18:29;;;;;;;16.17;3.17;;;28.20;48.30;;;;;;5105919;27;45499;-70
2023/09/29 11:20:58;;;;;;;11.43;3.33;;;28.40;49.50;;;;;;5107577;27;45150;-65
2023/09/29 11:23:25;;;;;;;9.30;2.80;;;28.50;47.80;;;;;;5104146;27;48030;-70
2023/09/29 11:25:54;;;;;;;10.45;3.22;;;28.70;47.40;;;;;;5091820;27;45506;-69
2023/09/29 11:28:21;;;;;;;6.82;2.50;;;28.80;47.00;;;;;;5087327;27;45362;-70
2023/09/29 11:30:48;;;;;;;4.47;2.40;;;28.80;46.90;;;;;;5099136;27;45411;-65
2023/09/29 11:33:17;;;;;;;8.40;2.25;;;29.00;46.40;;;;;;5105752;27;47943;-66
2023/09/29 11:35:45;;;;;;;7.07;2.42;;;29.10;47.00;;;;;;5099226;27;45463;-69
2023/09/29 11:38:15;;;;;;;8.93;2.60;;;29.20;47.30;;;;;;5110371;27;45218;-71
2023/09/29 11:40:42;;;;;;;6.25;2.35;;;29.30;46.70;;;;;;5094323;27;45552;-69
2023/09/29 11:43:09;;;;;;;8.93;3.15;;;29.30;46.70;;;;;;5099610;27;46270;-66
2023/09/29 11:45:36;;;;;;;3.85;2.13;;;29.40;46.30;;;;;;5091332;27;45281;-68
2023/09/29 11:48:04;;;;;;;4.60;2.40;;;29.50;45.70;;;;;;5106874;27;45327;-69
2023/09/29 11:50:33;;;;;;;5.63;2.60;;;29.50;45.40;;;;;;5107391;27;45435;-69
2023/09/29 11:53:03;;;;;;;3.22;2.33;;;29.60;45.30;;;;;;5107309;27;45374;-69
2023/09/29 11:55:30;;;;;;;4.80;2.05;;;29.60;46.20;;;;;;5105944;27;45266;-69
2023/09/29 11:57:57;;;;;;;5.75;2.25;;;29.70;45.30;;;;;;5093915;27;45383;-70
2023/09/29 12:00:24;;;;;;;4.05;2.38;;;29.80;46.40;;;;;;5106285;27;45217;-69
2023/09/29 12:02:51;;;;;;;5.97;2.10;;;29.90;45.80;;;;;;5102038;27;46180;-66
2023/09/29 12:05:18;;;;;;;4.30;2.47;;;29.90;45.50;;;;;;5108979;27;45245;-68
2023/09/29 12:07:46;;;;;;;8.10;2.45;;;30.00;44.70;;;;;;5108065;27;45221;-67
2023/09/29 12:10:13;;;;;;;3.85;1.90;;;30.00;44.30;;;;;;5096271;27;45411;-67
2023/09/29 12:12:40;;;;;;;3.75;2.20;;;30.10;44.60;;;;;;5086536;27;45652;-71
2023/09/29 12:15:08;;;;;;;6.63;1.98;;;30.20;44.00;;;;;;5086984;27;45239;-68
2023/09/29 12:17:35;;;;;;;4.20;2.05;;;30.20;43.60;;;;;;5086321;27;45256;-71
2023/09/29 12:20:02;;;;;;;2.25;2.10;;;30.30;43.40;;;;;;5088555;27;45323;-69
2023/09/29 12:22:31;;;;;;;4.07;2.40;;;30.20;43.70;;;;;;5109219;27;45286;-68
2023/09/29 12:24:59;;;;;;;10.27;2.65;;;29.90;43.20;;;;;;5103586;27;45497;-68
2023/09/29 12:27:26;;;;;;;9.88;2.72;;;29.70;44.00;;;;;;5101594;27;45489;-65
2023/09/29 12:29:56;;;;;;;3.25;1.95;;;29.60;43.80;;;;;;5103507;27;45635;-66
2023/09/29 12:32:22;;;;;;;2.30;2.10;;;29.50;44.00;;;;;;5100210;27;46179;-67
2023/09/29 12:34:49;;;;;;;2.92;2.10;;;29.50;44.20;;;;;;5104070;27;45656;-67
2023/09/29 12:37:16;;;;;;;2.85;2.00;;;29.60;44.00;;;;;;5086245;27;45194;-67
2023/09/29 12:39:43;;;;;;;3.28;1.83;;;29.80;43.60;;;;;;5102349;27;45279;-67
2023/09/29 12:42:11;;;;;;;6.35;2.42;;;30.00;43.70;;;;;;5108111;27;48266;-66
2023/09/29 12:44:38;;;;;;;3.38;1.92;;;30.00;43.10;;;;;;5103626;27;45496;-68
2023/09/29 12:47:05;;;;;;;3.40;1.80;;;29.90;43.30;;;;;;5093486;27;45419;-65
2023/09/29 12:49:32;;;;;;;2.05;1.77;;;29.90;43.70;;;;;;5089415;27;45571;-67